Mildred, Montana
Current Conditions -  °F | °C
As of 4:55 PM on Sunday 21 Dec 2014 (Local Time) from KGDV Reporting Station
Broken Clouds Broken Clouds  
Wind Chill: 29°   Ceiling: 3600
Heat Index: 34°   Visibility: 10mi
Dew Point: 32°   Wind: 6mph
Humidity: 93%   Direction: 180°S
Pressure: 29.37"   Gusts: NA
Location:  46.68°N, 104.96°W
Report Text: KGDV 212355Z AUTO 18005KT 10SM SCT018 BKN036 01/00 A2937 RMK AO1 P0001 60009 10020 20010 400201070 52014
Loading
Personal Weather Stations






























Interactive Weather Map New forecast layout! Learn more

10-Day Weather Forecast

Advertisements
Track Severe Weather on mobile